Time;durP1;ratioP1;P1;durP2;ratioP2;P2;SDS_P1;SDS_P2;PMS_P1;PMS_P2;Temp;Humidity;BMP_temperature;BMP_pressure;BME280_temperature;BME280_humidity;BME280_pressure;Samples;Min_cycle;Max_cycle;Signal;HPM_P1;HPM_P2
2023/08/12 00:00:36;;;;;;;11.55;6.65;;;23.00;93.50;;;;;;5012983;28;20033;-58
2023/08/12 00:03:22;;;;;;;8.43;6.88;;;22.90;93.50;;;;;;5010313;28;20545;-59
2023/08/12 00:06:08;;;;;;;8.07;6.75;;;22.80;93.40;;;;;;5012336;28;20503;-54
2023/08/12 00:08:54;;;;;;;9.57;6.82;;;22.80;93.50;;;;;;5011296;28;20034;-57
2023/08/12 00:11:40;;;;;;;8.55;6.70;;;22.70;93.60;;;;;;5010202;28;20382;-57
2023/08/12 00:14:26;;;;;;;9.95;6.65;;;22.70;94.00;;;;;;5011990;28;20017;-57
2023/08/12 00:17:12;;;;;;;12.32;6.93;;;22.70;94.10;;;;;;4998553;28;20215;-58
2023/08/12 00:19:59;;;;;;;11.00;6.88;;;22.70;94.20;;;;;;5013000;28;20022;-57
2023/08/12 00:22:45;;;;;;;10.85;6.82;;;22.70;94.10;;;;;;5007770;28;20068;-58
2023/08/12 00:25:31;;;;;;;9.30;6.05;;;22.70;94.10;;;;;;5009996;28;20026;-58
2023/08/12 00:28:17;;;;;;;8.00;6.85;;;22.60;94.40;;;;;;5012078;28;20040;-58
2023/08/12 00:31:04;;;;;;;8.70;6.18;;;22.60;94.40;;;;;;5010346;28;20033;-59
2023/08/12 00:33:50;;;;;;;8.90;6.38;;;22.60;94.50;;;;;;5006396;28;20057;-59
2023/08/12 00:36:36;;;;;;;11.25;5.45;;;22.50;94.40;;;;;;5012113;28;20450;-60
2023/08/12 00:39:22;;;;;;;7.05;5.60;;;22.40;94.50;;;;;;5008731;28;20033;-58
2023/08/12 00:42:08;;;;;;;8.98;6.80;;;22.40;94.60;;;;;;5009825;28;20502;-59
2023/08/12 00:44:54;;;;;;;10.88;6.25;;;22.40;94.70;;;;;;5012260;28;20034;-59
2023/08/12 00:47:41;;;;;;;10.25;6.78;;;22.30;94.70;;;;;;5011843;28;20173;-58
2023/08/12 00:50:28;;;;;;;12.05;6.50;;;22.30;94.90;;;;;;5012599;28;20061;-58
2023/08/12 00:53:15;;;;;;;7.30;6.22;;;22.30;94.90;;;;;;5012551;28;20503;-59
2023/08/12 00:56:02;;;;;;;7.03;6.10;;;22.20;94.90;;;;;;5012905;28;20105;-55
2023/08/12 00:58:48;;;;;;;10.65;5.60;;;22.20;95.00;;;;;;5012245;28;20036;-58
2023/08/12 01:01:35;;;;;;;10.88;6.15;;;22.20;95.10;;;;;;5012743;28;20038;-58
2023/08/12 01:04:21;;;;;;;8.73;6.28;;;22.20;95.30;;;;;;5012307;28;20030;-59
2023/08/12 01:07:07;;;;;;;11.02;6.43;;;22.20;95.60;;;;;;5012526;28;20506;-58
2023/08/12 01:09:53;;;;;;;11.95;6.45;;;22.30;96.00;;;;;;5012297;28;20057;-58
2023/08/12 01:12:51;;;;;;;12.93;7.13;;;22.20;95.80;;;;;;5012667;28;20028;-57
2023/08/12 01:15:37;;;;;;;7.68;5.82;;;22.20;95.80;;;;;;5012387;28;20105;-58
2023/08/12 01:18:25;;;;;;;9.38;5.90;;;22.20;95.80;;;;;;5012607;28;20038;-58
2023/08/12 01:21:16;;;;;;;9.27;5.65;;;22.10;96.00;;;;;;5012688;28;20097;-58
2023/08/12 01:24:03;;;;;;;10.40;5.55;;;22.10;96.40;;;;;;5011958;28;20030;-59
2023/08/12 01:26:49;;;;;;;6.93;5.45;;;22.00;96.30;;;;;;5011416;28;20030;-58
2023/08/12 01:29:45;;;;;;;9.02;5.93;;;21.80;96.20;;;;;;5012329;28;20096;-55
2023/08/12 01:32:50;;;;;;;8.68;6.30;;;21.80;96.50;;;;;;5012578;28;20560;-57
2023/08/12 01:35:41;;;;;;;9.55;5.15;;;21.90;96.60;;;;;;5013042;28;20022;-59
2023/08/12 01:38:31;;;;;;;7.57;5.47;;;21.90;96.40;;;;;;5011348;28;20057;-56
2023/08/12 01:41:18;;;;;;;7.72;5.40;;;21.90;96.40;;;;;;5011845;28;20026;-58
2023/08/12 01:44:05;;;;;;;7.28;5.30;;;21.90;96.30;;;;;;5012151;28;20038;-60
2023/08/12 01:46:51;;;;;;;10.10;5.72;;;21.80;96.70;;;;;;5011911;28;20026;-58
2023/08/12 01:49:37;;;;;;;7.88;5.65;;;21.70;97.00;;;;;;5011689;28;20113;-59
2023/08/12 01:52:23;;;;;;;7.97;5.30;;;21.70;97.10;;;;;;5011637;28;20525;-59
2023/08/12 01:55:09;;;;;;;8.10;5.43;;;21.60;97.40;;;;;;5011905;28;20108;-60
2023/08/12 01:57:55;;;;;;;8.30;6.03;;;21.60;97.50;;;;;;5011512;28;20030;-59
2023/08/12 02:00:41;;;;;;;6.70;5.50;;;21.60;97.80;;;;;;5011685;28;20384;-60
2023/08/12 02:03:26;;;;;;;7.47;5.57;;;21.50;98.30;;;;;;5011613;28;20442;-57
2023/08/12 02:06:12;;;;;;;9.10;6.30;;;21.40;98.10;;;;;;5011178;28;20034;-58
2023/08/12 02:08:58;;;;;;;9.40;5.85;;;21.40;98.40;;;;;;5011808;28;20022;-58
2023/08/12 02:11:44;;;;;;;7.40;5.80;;;21.40;98.40;;;;;;5011760;28;20034;-59
2023/08/12 02:14:30;;;;;;;9.40;5.80;;;21.40;98.50;;;;;;5011947;28;20022;-59
2023/08/12 02:17:16;;;;;;;6.70;5.85;;;21.50;98.70;;;;;;5012014;28;20062;-59
2023/08/12 02:20:04;;;;;;;8.70;5.88;;;21.50;98.90;;;;;;5011946;28;20118;-58
2023/08/12 02:22:49;;;;;;;9.15;6.43;;;21.50;99.30;;;;;;5011889;28;20061;-59
2023/08/12 02:25:35;;;;;;;8.88;5.80;;;21.50;99.10;;;;;;5012283;28;20032;-58
2023/08/12 02:28:21;;;;;;;9.13;5.68;;;21.50;99.20;;;;;;5010549;28;20046;-50
2023/08/12 02:31:07;;;;;;;13.13;6.05;;;21.50;99.30;;;;;;5011562;28;20105;-49
2023/08/12 02:33:53;;;;;;;9.00;6.13;;;21.50;99.30;;;;;;5011773;28;20034;-50
2023/08/12 02:36:39;;;;;;;11.35;6.35;;;21.40;99.30;;;;;;5010854;28;20029;-51
2023/08/12 02:39:25;;;;;;;10.50;6.53;;;21.40;99.40;;;;;;5010727;28;20030;-53
2023/08/12 02:42:11;;;;;;;11.93;6.50;;;21.30;99.60;;;;;;5011571;28;20087;-53
2023/08/12 02:44:57;;;;;;;6.78;5.93;;;21.20;99.70;;;;;;4996769;28;20041;-55
2023/08/12 02:47:43;;;;;;;10.10;5.75;;;21.20;99.90;;;;;;4997110;28;20505;-53
2023/08/12 02:50:29;;;;;;;9.38;5.93;;;21.10;99.90;;;;;;5011392;28;20030;-58
2023/08/12 02:53:15;;;;;;;9.82;5.97;;;21.10;99.90;;;;;;5010849;28;20053;-59
2023/08/12 02:56:01;;;;;;;9.50;5.80;;;21.10;99.90;;;;;;5011355;28;20112;-58
2023/08/12 02:58:47;;;;;;;8.82;5.65;;;21.10;99.90;;;;;;4996632;28;20125;-58
2023/08/12 03:01:33;;;;;;;6.57;5.95;;;21.10;99.90;;;;;;4997335;28;20158;-58
2023/08/12 03:04:20;;;;;;;7.70;6.50;;;21.10;99.90;;;;;;5011511;28;20100;-55
2023/08/12 03:07:06;;;;;;;7.88;6.20;;;21.00;99.90;;;;;;5011210;28;20030;-58
2023/08/12 03:09:51;;;;;;;9.52;6.53;;;21.00;99.90;;;;;;5011033;28;20037;-56
2023/08/12 03:12:37;;;;;;;10.05;6.07;;;21.00;99.90;;;;;;5011181;28;20555;-59
2023/08/12 03:15:23;;;;;;;8.48;6.07;;;21.10;99.90;;;;;;5010993;28;20026;-59
2023/08/12 03:18:09;;;;;;;7.05;5.63;;;21.10;99.90;;;;;;5013997;28;20025;-59
2023/08/12 03:20:55;;;;;;;8.95;6.63;;;21.10;99.90;;;;;;5014355;28;20077;-58
2023/08/12 03:23:41;;;;;;;6.95;6.20;;;21.00;99.90;;;;;;5014750;28;20130;-60
2023/08/12 03:26:27;;;;;;;8.75;5.95;;;21.10;99.90;;;;;;5013628;28;20018;-59
2023/08/12 03:29:13;;;;;;;10.35;6.50;;;21.10;99.90;;;;;;5013880;28;20103;-58
2023/08/12 03:31:59;;;;;;;9.82;6.25;;;21.10;99.90;;;;;;5014464;28;20022;-57
2023/08/12 03:34:45;;;;;;;7.57;6.68;;;21.10;99.90;;;;;;5013832;28;20411;-58
2023/08/12 03:37:31;;;;;;;7.18;6.22;;;21.00;99.90;;;;;;5013788;28;20517;-58
2023/08/12 03:40:17;;;;;;;13.32;6.80;;;21.00;99.90;;;;;;4999355;28;20030;-59
2023/08/12 03:43:03;;;;;;;10.77;6.97;;;21.00;99.90;;;;;;5014052;28;20117;-58
2023/08/12 03:45:49;;;;;;;10.05;7.15;;;20.90;99.90;;;;;;5013573;28;20029;-52
2023/08/12 03:48:35;;;;;;;13.07;5.72;;;21.00;99.90;;;;;;5013937;28;20062;-54
2023/08/12 03:51:21;;;;;;;9.10;6.28;;;20.90;99.90;;;;;;5013483;28;20030;-53
2023/08/12 03:54:07;;;;;;;8.50;6.35;;;20.90;99.90;;;;;;5000611;28;20053;-55
2023/08/12 03:56:53;;;;;;;9.82;7.05;;;20.90;99.90;;;;;;5013351;28;20580;-55
2023/08/12 03:59:39;;;;;;;10.45;6.47;;;20.80;99.90;;;;;;5013252;28;20034;-56
2023/08/12 04:02:25;;;;;;;9.10;6.38;;;20.80;99.90;;;;;;5014015;28;20030;-53
2023/08/12 04:05:11;;;;;;;7.13;6.20;;;20.80;99.90;;;;;;5013040;28;20112;-52
2023/08/12 04:07:57;;;;;;;7.47;5.72;;;20.80;99.90;;;;;;5013639;28;20092;-51
2023/08/12 04:10:47;;;;;;;8.90;7.38;;;20.70;99.90;;;;;;5013843;28;20041;-51
2023/08/12 04:13:33;;;;;;;9.27;6.30;;;20.70;99.90;;;;;;5013509;28;20498;-53
2023/08/12 04:16:19;;;;;;;10.50;6.32;;;20.70;99.90;;;;;;5013462;28;20083;-56
2023/08/12 04:19:05;;;;;;;8.70;6.65;;;20.80;99.90;;;;;;5013944;28;20053;-51
2023/08/12 04:21:51;;;;;;;7.72;6.15;;;20.80;99.90;;;;;;4999158;28;20428;-54
2023/08/12 04:24:37;;;;;;;9.20;6.68;;;20.80;99.90;;;;;;5013061;28;20030;-54
2023/08/12 04:27:23;;;;;;;9.57;6.32;;;20.80;99.90;;;;;;4998415;28;20399;-55
2023/08/12 04:30:09;;;;;;;13.77;6.45;;;20.70;99.90;;;;;;5013224;28;20037;-52
2023/08/12 04:32:55;;;;;;;10.48;6.55;;;20.80;99.90;;;;;;4998437;28;20018;-51
2023/08/12 04:35:41;;;;;;;8.48;6.35;;;20.70;99.90;;;;;;5013380;28;20491;-51
2023/08/12 04:38:27;;;;;;;8.85;6.35;;;20.80;99.90;;;;;;5012321;28;20034;-52
2023/08/12 04:41:13;;;;;;;10.30;6.60;;;20.80;99.90;;;;;;5012580;28;20534;-56
2023/08/12 04:43:59;;;;;;;9.30;6.45;;;20.80;99.90;;;;;;4998383;28;20045;-57
2023/08/12 04:46:45;;;;;;;11.40;6.07;;;20.90;99.90;;;;;;5013073;28;20030;-53
2023/08/12 04:49:31;;;;;;;9.82;6.85;;;20.80;99.90;;;;;;5012618;28;20030;-55
2023/08/12 04:52:17;;;;;;;9.80;6.22;;;20.90;99.90;;;;;;5013089;28;20030;-53
2023/08/12 04:55:04;;;;;;;8.45;6.47;;;20.90;99.90;;;;;;5012354;28;20474;-52
2023/08/12 04:57:50;;;;;;;9.18;5.97;;;20.80;99.90;;;;;;5012167;28;20038;-53
2023/08/12 05:00:36;;;;;;;7.45;6.18;;;20.90;99.90;;;;;;5012536;28;20045;-55
2023/08/12 05:03:22;;;;;;;8.70;6.18;;;20.90;99.90;;;;;;5013079;28;20108;-57
2023/08/12 05:06:08;;;;;;;8.35;6.47;;;20.80;99.90;;;;;;5011985;28;20038;-54
2023/08/12 05:08:54;;;;;;;9.88;5.63;;;20.80;99.90;;;;;;4998591;28;20109;-55
2023/08/12 05:11:40;;;;;;;7.50;6.00;;;20.90;99.90;;;;;;5011779;28;20077;-53
2023/08/12 05:14:26;;;;;;;8.50;6.55;;;20.90;99.90;;;;;;5011982;28;20025;-57
2023/08/12 05:17:12;;;;;;;8.85;5.95;;;20.90;99.90;;;;;;5012007;28;20491;-54
2023/08/12 05:19:58;;;;;;;6.15;5.55;;;21.00;99.90;;;;;;5012437;28;20458;-52
2023/08/12 05:22:44;;;;;;;7.68;6.38;;;21.00;99.90;;;;;;5012267;28;20022;-55
2023/08/12 05:25:30;;;;;;;7.05;6.32;;;21.00;99.90;;;;;;5011800;28;20033;-52
2023/08/12 05:28:16;;;;;;;9.05;6.30;;;21.00;99.90;;;;;;5011138;28;20042;-57
2023/08/12 05:31:01;;;;;;;12.43;6.80;;;21.00;99.90;;;;;;5010768;28;20041;-55
2023/08/12 05:33:47;;;;;;;7.45;6.07;;;21.10;99.90;;;;;;5011522;28;20053;-53
2023/08/12 05:36:33;;;;;;;10.18;6.13;;;21.20;99.90;;;;;;5013419;28;20030;-55
2023/08/12 05:39:19;;;;;;;9.43;6.80;;;21.20;99.90;;;;;;5010637;28;20021;-51
2023/08/12 05:42:05;;;;;;;8.23;6.10;;;21.40;99.90;;;;;;5010662;28;20033;-52
2023/08/12 05:44:51;;;;;;;6.90;5.95;;;21.40;99.90;;;;;;5011032;28;20506;-54
2023/08/12 05:47:37;;;;;;;6.60;6.00;;;21.50;99.90;;;;;;5011045;28;20041;-53
2023/08/12 05:50:23;;;;;;;9.73;6.22;;;21.60;99.90;;;;;;5010700;28;20026;-51
2023/08/12 05:53:09;;;;;;;9.25;6.65;;;21.60;99.90;;;;;;5011022;28;20024;-53
2023/08/12 05:55:55;;;;;;;6.93;5.93;;;21.70;99.90;;;;;;5011038;28;20025;-53
2023/08/12 05:58:41;;;;;;;7.38;5.97;;;21.70;99.90;;;;;;5010627;28;20022;-54
2023/08/12 06:01:27;;;;;;;10.63;6.88;;;21.80;99.90;;;;;;5010424;28;20026;-53
2023/08/12 06:04:13;;;;;;;6.07;5.50;;;21.90;99.90;;;;;;5010080;28;20088;-49
2023/08/12 06:06:59;;;;;;;6.85;6.00;;;22.00;99.90;;;;;;5010363;28;20498;-53
2023/08/12 06:09:45;;;;;;;9.18;6.40;;;22.00;99.90;;;;;;5010465;28;20545;-56
2023/08/12 06:12:31;;;;;;;7.05;6.35;;;22.10;99.90;;;;;;5010175;28;20029;-52
2023/08/12 06:15:17;;;;;;;6.97;6.20;;;22.10;99.90;;;;;;5010019;28;20044;-56
2023/08/12 06:18:03;;;;;;;7.13;6.30;;;22.20;99.90;;;;;;5011193;28;20068;-50
2023/08/12 06:20:49;;;;;;;7.88;5.88;;;22.30;99.90;;;;;;5011632;28;20399;-55
2023/08/12 06:23:35;;;;;;;8.75;6.38;;;22.30;99.90;;;;;;5010977;28;20042;-54
2023/08/12 06:26:21;;;;;;;10.00;6.30;;;22.40;99.80;;;;;;4996243;28;20105;-56
2023/08/12 06:29:06;;;;;;;9.88;8.80;;;22.40;99.60;;;;;;5010516;28;20541;-50
2023/08/12 06:31:53;;;;;;;9.00;8.00;;;22.50;99.50;;;;;;5011473;28;20109;-56
2023/08/12 06:34:39;;;;;;;7.85;6.40;;;22.50;99.30;;;;;;5010279;28;20033;-52
2023/08/12 06:37:25;;;;;;;7.57;5.55;;;22.60;99.20;;;;;;5010436;28;20053;-50
2023/08/12 06:40:11;;;;;;;7.18;6.40;;;22.60;99.00;;;;;;5010071;28;20034;-50
2023/08/12 06:42:57;;;;;;;7.78;5.57;;;22.60;98.90;;;;;;5010692;28;20045;-54
2023/08/12 06:45:42;;;;;;;8.45;5.45;;;22.60;98.90;;;;;;5010042;28;20053;-55
2023/08/12 06:48:29;;;;;;;8.05;6.10;;;22.70;98.70;;;;;;5009477;28;20092;-53
2023/08/12 06:51:15;;;;;;;7.97;6.63;;;22.80;98.70;;;;;;5011192;28;20379;-51
2023/08/12 06:54:01;;;;;;;7.63;6.05;;;22.80;98.60;;;;;;5014089;28;20049;-54
2023/08/12 06:56:46;;;;;;;8.13;6.55;;;22.80;98.60;;;;;;5014168;28;20041;-54
2023/08/12 06:59:32;;;;;;;8.27;5.80;;;22.80;98.50;;;;;;5014186;28;20120;-56
2023/08/12 07:02:18;;;;;;;7.25;6.20;;;22.90;98.50;;;;;;5013905;28;20041;-49
2023/08/12 07:05:04;;;;;;;8.02;5.80;;;23.00;98.40;;;;;;5013156;28;20029;-51
2023/08/12 07:07:50;;;;;;;7.32;5.57;;;23.00;98.30;;;;;;5012979;28;20637;-54
2023/08/12 07:10:40;;;;;;;8.00;6.50;;;23.10;98.40;;;;;;5013788;28;20509;-56
2023/08/12 07:13:27;;;;;;;7.05;6.00;;;23.20;98.30;;;;;;5013556;28;20038;-52
2023/08/12 07:16:13;;;;;;;6.80;5.80;;;23.20;98.30;;;;;;5013189;28;20022;-56
2023/08/12 07:18:58;;;;;;;6.22;5.63;;;23.20;98.20;;;;;;5013313;28;20395;-58
2023/08/12 07:21:45;;;;;;;7.68;6.22;;;23.30;98.10;;;;;;5012955;28;20030;-55
2023/08/12 07:24:31;;;;;;;8.23;6.95;;;23.30;98.10;;;;;;5013588;28;20572;-53
2023/08/12 07:27:17;;;;;;;7.10;6.40;;;23.30;98.10;;;;;;5013157;28;20073;-55
2023/08/12 07:30:03;;;;;;;7.00;6.25;;;23.30;98.20;;;;;;5013458;28;20040;-57
2023/08/12 07:32:49;;;;;;;7.53;6.50;;;23.30;98.30;;;;;;5013552;28;20022;-50
2023/08/12 07:35:35;;;;;;;8.60;6.55;;;23.20;98.20;;;;;;5013098;28;20026;-53
2023/08/12 07:38:21;;;;;;;8.23;6.28;;;23.10;98.30;;;;;;5012538;28;20026;-54
2023/08/12 07:41:07;;;;;;;6.72;5.97;;;23.00;98.90;;;;;;5012949;28;20054;-53
2023/08/12 07:43:53;;;;;;;9.95;7.07;;;22.90;99.20;;;;;;5012802;28;20443;-55
2023/08/12 07:46:39;;;;;;;8.13;7.20;;;22.80;99.80;;;;;;5012706;28;20030;-54
2023/08/12 07:49:25;;;;;;;8.80;7.53;;;22.70;99.90;;;;;;5013485;28;20494;-56
2023/08/12 07:52:11;;;;;;;10.75;6.88;;;22.70;99.90;;;;;;5012272;28;20030;-56
2023/08/12 07:54:57;;;;;;;8.48;6.82;;;22.70;99.90;;;;;;5013002;28;20100;-57
2023/08/12 07:57:44;;;;;;;8.07;7.25;;;22.70;99.90;;;;;;5012401;28;20116;-54
2023/08/12 08:00:30;;;;;;;11.93;8.23;;;22.70;99.90;;;;;;5012236;28;20101;-52
2023/08/12 08:03:16;;;;;;;9.43;7.05;;;22.60;99.90;;;;;;4997078;28;20104;-56
2023/08/12 08:06:02;;;;;;;8.55;7.47;;;22.70;99.90;;;;;;5013570;28;20462;-53
2023/08/12 08:08:48;;;;;;;8.68;7.28;;;22.70;99.90;;;;;;5013993;28;20034;-53
2023/08/12 08:11:34;;;;;;;9.55;7.50;;;22.80;99.90;;;;;;5012694;28;20068;-54
2023/08/12 08:14:20;;;;;;;9.60;7.80;;;22.80;99.90;;;;;;5012115;28;20026;-56
2023/08/12 08:17:06;;;;;;;9.57;8.00;;;22.80;99.90;;;;;;5013070;28;20441;-57
2023/08/12 08:19:52;;;;;;;7.85;7.10;;;22.80;99.90;;;;;;5013500;28;20052;-56
2023/08/12 08:22:39;;;;;;;8.18;7.35;;;22.90;99.90;;;;;;5013378;28;20109;-57
2023/08/12 08:25:25;;;;;;;10.35;9.32;;;22.90;99.90;;;;;;5013743;28;20026;-56
2023/08/12 08:28:11;;;;;;;8.77;7.72;;;23.00;99.90;;;;;;5002267;28;20060;-52
2023/08/12 08:30:56;;;;;;;8.88;7.70;;;23.10;99.90;;;;;;5013489;28;20022;-56
2023/08/12 08:33:42;;;;;;;8.55;7.70;;;23.10;99.90;;;;;;5010806;28;20106;-56
2023/08/12 08:36:28;;;;;;;8.23;7.43;;;23.10;99.90;;;;;;5011701;28;20018;-57
2023/08/12 08:39:14;;;;;;;9.90;7.45;;;23.20;99.90;;;;;;5014706;28;20022;-58
2023/08/12 08:42:02;;;;;;;8.75;7.72;;;23.20;99.90;;;;;;5009949;28;20026;-56
2023/08/12 08:44:52;;;;;;;9.38;7.78;;;23.30;99.90;;;;;;5010857;28;20026;-56
2023/08/12 08:47:39;;;;;;;12.30;11.27;;;23.30;99.90;;;;;;5009677;28;20079;-57
2023/08/12 08:50:25;;;;;;;16.88;15.38;;;23.30;99.90;;;;;;5011548;28;20026;-57
2023/08/12 08:53:12;;;;;;;14.93;13.48;;;23.40;99.90;;;;;;5010569;28;20026;-55
2023/08/12 08:55:59;;;;;;;10.93;9.20;;;23.40;99.90;;;;;;5010991;28;20104;-56
2023/08/12 08:58:46;;;;;;;12.57;11.48;;;23.50;99.90;;;;;;5011995;28;20034;-55
2023/08/12 09:01:32;;;;;;;10.40;9.43;;;23.60;99.90;;;;;;5010422;28;20033;-54
2023/08/12 09:04:20;;;;;;;9.13;7.75;;;23.60;99.90;;;;;;5010889;28;20026;-54
2023/08/12 09:07:06;;;;;;;8.05;7.15;;;23.70;99.90;;;;;;5006689;28;20372;-54
2023/08/12 09:09:54;;;;;;;10.13;7.35;;;23.80;99.90;;;;;;5000266;28;20049;-56
2023/08/12 09:12:41;;;;;;;8.07;6.70;;;23.70;99.90;;;;;;5010739;28;20026;-59
2023/08/12 09:15:27;;;;;;;9.25;6.78;;;23.70;99.90;;;;;;4996732;28;20032;-56
2023/08/12 09:18:13;;;;;;;8.45;7.57;;;23.80;99.90;;;;;;5012083;28;20388;-54
2023/08/12 09:20:59;;;;;;;8.32;7.53;;;23.90;99.90;;;;;;5007584;28;20415;-56
2023/08/12 09:23:45;;;;;;;8.63;7.72;;;23.80;99.90;;;;;;5000896;28;20562;-56
2023/08/12 09:26:31;;;;;;;8.07;7.28;;;23.90;99.90;;;;;;5006652;28;20076;-54
2023/08/12 09:29:17;;;;;;;9.93;7.72;;;23.90;99.90;;;;;;5011439;28;20113;-53
2023/08/12 09:32:13;;;;;;;8.95;8.20;;;23.90;99.90;;;;;;5010832;28;20057;-51
2023/08/12 09:35:02;;;;;;;8.95;7.03;;;23.90;99.90;;;;;;5004937;28;20025;-54
2023/08/12 09:37:49;;;;;;;7.80;6.97;;;24.00;99.90;;;;;;5009561;28;20053;-59
2023/08/12 09:40:36;;;;;;;8.13;7.05;;;23.90;99.90;;;;;;5010142;28;20029;-47
2023/08/12 09:43:28;;;;;;;7.88;7.07;;;23.80;99.90;;;;;;5010263;28;20650;-54
2023/08/12 09:46:14;;;;;;;8.00;7.20;;;23.80;99.90;;;;;;5010460;28;20033;-52
2023/08/12 09:49:00;;;;;;;7.25;6.50;;;23.70;99.90;;;;;;4995633;28;20040;-53
2023/08/12 09:51:46;;;;;;;7.53;6.82;;;23.70;99.90;;;;;;5010289;28;20026;-51
2023/08/12 09:54:33;;;;;;;8.70;7.85;;;23.70;99.90;;;;;;5008635;28;20421;-56
2023/08/12 09:57:20;;;;;;;8.25;6.90;;;23.70;99.90;;;;;;5009903;28;20100;-57
2023/08/12 10:00:11;;;;;;;8.65;7.40;;;23.60;99.90;;;;;;5008713;28;20038;-56
2023/08/12 10:03:00;;;;;;;7.65;6.70;;;23.60;99.90;;;;;;5009757;28;20045;-56
2023/08/12 10:05:47;;;;;;;7.47;6.78;;;23.60;99.90;;;;;;5007577;28;20030;-55
2023/08/12 10:08:35;;;;;;;8.32;7.28;;;23.70;99.90;;;;;;5008415;28;20026;-53
2023/08/12 10:11:21;;;;;;;9.10;7.80;;;23.70;99.90;;;;;;5006610;28;20270;-51
2023/08/12 10:14:09;;;;;;;10.20;7.22;;;23.80;99.90;;;;;;5010337;28;20026;-51
2023/08/12 10:16:56;;;;;;;7.57;6.80;;;23.90;99.90;;;;;;5010736;28;20030;-65
2023/08/12 10:19:46;;;;;;;7.93;7.13;;;24.00;99.90;;;;;;5009787;28;20132;-54
2023/08/12 10:22:34;;;;;;;7.65;6.80;;;24.20;99.90;;;;;;4996644;28;20053;-51
2023/08/12 10:25:21;;;;;;;7.70;6.60;;;24.30;99.90;;;;;;5010676;28;20442;-50
2023/08/12 10:28:07;;;;;;;6.80;6.20;;;24.50;99.90;;;;;;5011196;28;20037;-50
2023/08/12 10:30:54;;;;;;;8.40;6.32;;;24.70;99.70;;;;;;5009653;28;20120;-48
2023/08/12 10:33:41;;;;;;;7.20;6.28;;;25.00;99.30;;;;;;5011485;28;20041;-49
2023/08/12 10:36:27;;;;;;;8.57;6.72;;;25.30;98.90;;;;;;5005414;28;20053;-50
2023/08/12 10:39:14;;;;;;;6.28;5.68;;;25.50;98.80;;;;;;5013643;28;20045;-56
2023/08/12 10:42:00;;;;;;;6.68;6.07;;;25.70;98.10;;;;;;4988216;28;20084;-56
2023/08/12 10:44:51;;;;;;;7.93;6.57;;;25.60;97.20;;;;;;5014378;28;20105;-51
2023/08/12 10:48:13;;;;;;;6.93;5.57;;;25.40;96.80;;;;;;5015126;28;20033;-54
2023/08/12 10:51:00;;;;;;;5.95;5.32;;;25.50;96.70;;;;;;5015726;28;20030;-55
2023/08/12 10:53:48;;;;;;;5.65;5.15;;;25.50;96.70;;;;;;5014833;28;20376;-54
2023/08/12 10:57:03;;;;;;;6.88;5.70;;;25.50;96.30;;;;;;5005826;28;20032;-56
2023/08/12 10:59:51;;;;;;;5.93;5.43;;;25.90;95.60;;;;;;5015284;28;20022;-48
2023/08/12 11:02:39;;;;;;;7.13;5.20;;;25.80;95.40;;;;;;5008992;28;20406;-53
2023/08/12 11:05:37;;;;;;;7.32;5.20;;;25.80;95.30;;;;;;5009724;28;20402;-51
2023/08/12 11:08:29;;;;;;;6.25;5.65;;;26.00;95.80;;;;;;5012571;28;20065;-51
2023/08/12 11:11:25;;;;;;;8.90;5.90;;;26.10;95.20;;;;;;5014084;28;20030;-53
2023/08/12 11:14:14;;;;;;;8.02;5.38;;;26.00;95.50;;;;;;5015541;28;20775;-54
2023/08/12 11:17:11;;;;;;;7.50;5.85;;;26.10;94.90;;;;;;5010169;28;20092;-56
2023/08/12 11:19:57;;;;;;;6.05;5.30;;;26.10;94.50;;;;;;5011590;28;20030;-52
2023/08/12 11:22:44;;;;;;;6.65;5.18;;;26.20;94.70;;;;;;5012188;28;20509;-52
2023/08/12 11:25:31;;;;;;;5.90;5.30;;;26.40;94.80;;;;;;5012403;28;20042;-53
2023/08/12 11:28:21;;;;;;;6.32;5.40;;;26.40;94.50;;;;;;4995952;28;20415;-52
2023/08/12 11:31:07;;;;;;;6.47;5.75;;;26.50;94.90;;;;;;4998645;28;20045;-51
2023/08/12 11:33:53;;;;;;;8.50;5.55;;;26.80;94.30;;;;;;4996648;28;20031;-55
2023/08/12 11:36:39;;;;;;;8.15;5.10;;;26.70;93.90;;;;;;5006511;28;20030;-52
2023/08/12 11:39:26;;;;;;;6.60;5.78;;;26.70;94.10;;;;;;5003166;28;20665;-56
2023/08/12 11:42:12;;;;;;;9.10;5.72;;;26.70;94.10;;;;;;5013833;28;20022;-54
2023/08/12 11:44:58;;;;;;;7.65;5.28;;;26.90;93.70;;;;;;5011004;28;20503;-60
2023/08/12 11:47:45;;;;;;;6.78;4.72;;;27.10;93.20;;;;;;5012288;28;20506;-60
2023/08/12 11:50:31;;;;;;;6.63;4.78;;;27.10;92.80;;;;;;5011104;28;20053;-59
2023/08/12 11:53:17;;;;;;;6.22;4.90;;;27.00;92.70;;;;;;4995584;28;20026;-54
2023/08/12 11:56:03;;;;;;;6.03;4.78;;;27.00;92.80;;;;;;5009144;28;20034;-54
2023/08/12 11:58:53;;;;;;;8.00;5.07;;;27.20;92.80;;;;;;4994546;28;20062;-54
2023/08/12 12:01:39;;;;;;;7.05;4.93;;;27.30;92.90;;;;;;5002424;28;20030;-56
2023/08/12 12:04:25;;;;;;;7.88;5.53;;;27.30;92.40;;;;;;5013915;28;20392;-54
2023/08/12 12:07:24;;;;;;;6.80;5.68;;;27.50;91.80;;;;;;4999383;28;20483;-53
2023/08/12 12:10:45;;;;;;;6.78;4.75;;;27.50;92.10;;;;;;5011896;28;20033;-57
2023/08/12 12:13:31;;;;;;;5.55;4.80;;;27.40;92.10;;;;;;4933243;29;20027;-58
2023/08/12 12:16:17;;;;;;;6.75;5.10;;;27.40;91.10;;;;;;5011324;28;20053;-56
2023/08/12 12:19:05;;;;;;;7.22;5.22;;;27.30;91.20;;;;;;5012616;28;20034;-59
2023/08/12 12:21:53;;;;;;;7.07;4.72;;;27.40;91.40;;;;;;5008008;28;20034;-58
2023/08/12 12:24:46;;;;;;;7.25;5.03;;;27.60;91.00;;;;;;5013414;28;20052;-57
2023/08/12 12:27:32;;;;;;;6.57;4.60;;;28.00;90.60;;;;;;5011994;28;20113;-58
2023/08/12 12:30:19;;;;;;;5.70;4.72;;;28.10;90.80;;;;;;5011768;28;20046;-60
2023/08/12 12:33:05;;;;;;;6.85;5.13;;;28.00;90.60;;;;;;4997757;28;20027;-58
2023/08/12 12:35:51;;;;;;;5.60;5.00;;;28.00;90.60;;;;;;4994939;28;20029;-55
2023/08/12 12:38:37;;;;;;;6.85;5.05;;;28.20;90.70;;;;;;5007861;28;20263;-59
2023/08/12 12:41:23;;;;;;;7.10;5.20;;;28.00;91.00;;;;;;5010518;28;20335;-58
2023/08/12 12:44:09;;;;;;;7.88;5.07;;;28.10;91.20;;;;;;5012400;28;20042;-55
2023/08/12 12:46:55;;;;;;;5.63;5.00;;;28.20;90.90;;;;;;4997863;28;20038;-55
2023/08/12 12:49:41;;;;;;;6.88;5.07;;;28.40;90.90;;;;;;5010736;28;20523;-55
2023/08/12 12:52:27;;;;;;;7.90;5.15;;;28.70;90.60;;;;;;5013740;28;20034;-57
2023/08/12 12:55:13;;;;;;;6.10;4.93;;;28.80;90.40;;;;;;5011777;28;20030;-51
2023/08/12 12:57:59;;;;;;;5.75;5.10;;;29.00;90.30;;;;;;5007902;28;20041;-54
2023/08/12 13:00:45;;;;;;;6.30;5.32;;;29.10;90.20;;;;;;5009152;28;20041;-54
2023/08/12 13:03:31;;;;;;;9.63;5.10;;;29.00;89.90;;;;;;4995782;28;20025;-53
2023/08/12 13:06:17;;;;;;;14.73;4.95;;;29.20;90.10;;;;;;5008446;28;20083;-53
2023/08/12 13:09:04;;;;;;;5.05;4.55;;;29.50;89.70;;;;;;5009060;28;20034;-56
2023/08/12 13:11:50;;;;;;;5.32;4.80;;;29.60;88.00;;;;;;5008662;28;20038;-53
2023/08/12 13:14:36;;;;;;;5.50;5.00;;;29.60;88.00;;;;;;5010540;28;20462;-52
2023/08/12 13:17:22;;;;;;;5.45;4.93;;;29.90;87.90;;;;;;4997459;28;20030;-54
2023/08/12 13:20:09;;;;;;;7.72;4.78;;;30.00;87.70;;;;;;5013323;28;20065;-56
2023/08/12 13:22:55;;;;;;;6.00;5.00;;;30.10;88.00;;;;;;5011973;28;20041;-54
2023/08/12 13:25:41;;;;;;;5.50;5.00;;;30.20;87.20;;;;;;5012104;28;20037;-52
2023/08/12 13:28:27;;;;;;;5.97;4.88;;;30.00;87.90;;;;;;5012401;28;20554;-50
2023/08/12 13:31:13;;;;;;;6.28;5.00;;;29.50;88.00;;;;;;5011854;28;20037;-56
2023/08/12 13:33:59;;;;;;;7.38;5.03;;;29.40;89.10;;;;;;5009752;28;20041;-54
2023/08/12 13:36:45;;;;;;;11.82;5.07;;;29.40;89.00;;;;;;5009419;28;20022;-54
2023/08/12 13:39:32;;;;;;;6.35;5.07;;;29.30;89.50;;;;;;5010595;28;20022;-55
2023/08/12 13:42:18;;;;;;;8.07;4.97;;;29.20;90.20;;;;;;5008760;28;20029;-55
2023/08/12 13:45:05;;;;;;;6.15;5.05;;;29.20;89.80;;;;;;5008191;28;20072;-55
2023/08/12 13:47:51;;;;;;;6.07;4.75;;;29.20;90.00;;;;;;5008724;28;20045;-50
2023/08/12 13:50:37;;;;;;;5.65;5.00;;;29.30;89.70;;;;;;5010793;28;20030;-54
2023/08/12 13:53:24;;;;;;;7.70;5.15;;;29.60;89.50;;;;;;5008590;28;20258;-54
2023/08/12 13:56:10;;;;;;;5.47;4.97;;;29.80;89.40;;;;;;5009983;28;20037;-52
2023/08/12 13:58:56;;;;;;;5.88;5.30;;;30.00;88.80;;;;;;5008979;28;20109;-55
2023/08/12 14:01:42;;;;;;;7.15;5.30;;;30.10;88.00;;;;;;5009395;28;20454;-55
2023/08/12 14:04:28;;;;;;;7.30;5.28;;;30.00;88.10;;;;;;5010016;28;20030;-53
2023/08/12 14:07:14;;;;;;;6.22;5.13;;;29.90;89.00;;;;;;5007124;28;20100;-48
2023/08/12 14:10:00;;;;;;;7.35;4.88;;;29.60;89.00;;;;;;5011563;28;20037;-51
2023/08/12 14:12:48;;;;;;;7.57;5.68;;;29.30;89.90;;;;;;5010896;28;20096;-53
2023/08/12 14:15:34;;;;;;;6.43;5.75;;;29.10;90.10;;;;;;5007664;28;20018;-48
2023/08/12 14:18:20;;;;;;;7.30;5.72;;;29.00;90.40;;;;;;5010634;28;20097;-48
2023/08/12 14:21:06;;;;;;;7.75;7.00;;;28.90;90.70;;;;;;5006197;28;20168;-47
2023/08/12 14:23:52;;;;;;;5.85;5.28;;;28.80;91.00;;;;;;5006982;28;20061;-47
2023/08/12 14:26:38;;;;;;;6.78;6.18;;;28.80;90.90;;;;;;5007695;28;20087;-49